sensor_id;sensor_type;location;lat;lon;timestamp;P1;durP1;ratioP1;P2;durP2;ratioP2
13764;SDS011;6953;48.810;9.204;2022-11-15T00:00:49;0.50;;;0.50;;
13764;SDS011;6953;48.810;9.204;2022-11-15T00:03:18;0.40;;;0.40;;
13764;SDS011;6953;48.810;9.204;2022-11-15T00:05:45;0.47;;;0.47;;
13764;SDS011;6953;48.810;9.204;2022-11-15T00:08:10;0.30;;;0.30;;
13764;SDS011;6953;48.810;9.204;2022-11-15T00:10:36;0.40;;;0.40;;
13764;SDS011;6953;48.810;9.204;2022-11-15T00:13:09;0.50;;;0.50;;
13764;SDS011;6953;48.810;9.204;2022-11-15T00:15:40;0.40;;;0.40;;
13764;SDS011;6953;48.810;9.204;2022-11-15T00:18:06;0.40;;;0.40;;
13764;SDS011;6953;48.810;9.204;2022-11-15T00:20:37;0.55;;;0.55;;
13764;SDS011;6953;48.810;9.204;2022-11-15T00:23:03;0.40;;;0.40;;
13764;SDS011;6953;48.810;9.204;2022-11-15T00:25:29;0.40;;;0.40;;
13764;SDS011;6953;48.810;9.204;2022-11-15T00:27:55;0.40;;;0.40;;
13764;SDS011;6953;48.810;9.204;2022-11-15T00:30:22;0.43;;;0.43;;
13764;SDS011;6953;48.810;9.204;2022-11-15T00:32:47;0.40;;;0.40;;
13764;SDS011;6953;48.810;9.204;2022-11-15T00:35:12;0.50;;;0.50;;
13764;SDS011;6953;48.810;9.204;2022-11-15T00:37:38;0.40;;;0.40;;
13764;SDS011;6953;48.810;9.204;2022-11-15T00:40:03;0.50;;;0.50;;
13764;SDS011;6953;48.810;9.204;2022-11-15T00:42:29;0.50;;;0.50;;
13764;SDS011;6953;48.810;9.204;2022-11-15T00:44:54;0.40;;;0.40;;
13764;SDS011;6953;48.810;9.204;2022-11-15T00:47:20;0.50;;;0.50;;
13764;SDS011;6953;48.810;9.204;2022-11-15T00:49:45;0.30;;;0.30;;
13764;SDS011;6953;48.810;9.204;2022-11-15T00:52:10;0.35;;;0.35;;
13764;SDS011;6953;48.810;9.204;2022-11-15T00:54:36;0.50;;;0.50;;
13764;SDS011;6953;48.810;9.204;2022-11-15T00:57:01;0.50;;;0.50;;
13764;SDS011;6953;48.810;9.204;2022-11-15T00:59:26;0.30;;;0.30;;
13764;SDS011;6953;48.810;9.204;2022-11-15T01:01:52;0.38;;;0.38;;
13764;SDS011;6953;48.810;9.204;2022-11-15T01:04:17;0.40;;;0.40;;
13764;SDS011;6953;48.810;9.204;2022-11-15T01:06:42;0.43;;;0.43;;
13764;SDS011;6953;48.810;9.204;2022-11-15T01:09:08;0.40;;;0.40;;
13764;SDS011;6953;48.810;9.204;2022-11-15T01:11:33;0.43;;;0.43;;
13764;SDS011;6953;48.810;9.204;2022-11-15T01:13:58;0.40;;;0.40;;
13764;SDS011;6953;48.810;9.204;2022-11-15T01:16:24;0.50;;;0.50;;
13764;SDS011;6953;48.810;9.204;2022-11-15T01:18:50;0.40;;;0.40;;
13764;SDS011;6953;48.810;9.204;2022-11-15T01:21:16;0.40;;;0.40;;
13764;SDS011;6953;48.810;9.204;2022-11-15T01:23:43;0.47;;;0.47;;
13764;SDS011;6953;48.810;9.204;2022-11-15T01:26:10;0.50;;;0.50;;
13764;SDS011;6953;48.810;9.204;2022-11-15T01:28:38;0.50;;;0.50;;
13764;SDS011;6953;48.810;9.204;2022-11-15T01:31:15;0.50;;;0.50;;
13764;SDS011;6953;48.810;9.204;2022-11-15T01:33:45;0.50;;;0.50;;
13764;SDS011;6953;48.810;9.204;2022-11-15T01:36:18;0.50;;;0.50;;
13764;SDS011;6953;48.810;9.204;2022-11-15T01:38:47;0.43;;;0.43;;
13764;SDS011;6953;48.810;9.204;2022-11-15T01:41:20;0.40;;;0.40;;
13764;SDS011;6953;48.810;9.204;2022-11-15T01:43:49;0.50;;;0.50;;
13764;SDS011;6953;48.810;9.204;2022-11-15T01:48:46;0.57;;;0.57;;
13764;SDS011;6953;48.810;9.204;2022-11-15T01:51:13;0.50;;;0.50;;
13764;SDS011;6953;48.810;9.204;2022-11-15T01:53:42;0.50;;;0.50;;
13764;SDS011;6953;48.810;9.204;2022-11-15T01:56:12;0.50;;;0.50;;
13764;SDS011;6953;48.810;9.204;2022-11-15T01:58:41;0.43;;;0.43;;
13764;SDS011;6953;48.810;9.204;2022-11-15T02:01:09;0.40;;;0.40;;
13764;SDS011;6953;48.810;9.204;2022-11-15T02:03:38;0.50;;;0.50;;
13764;SDS011;6953;48.810;9.204;2022-11-15T02:06:10;0.40;;;0.40;;
13764;SDS011;6953;48.810;9.204;2022-11-15T02:08:36;0.50;;;0.50;;
13764;SDS011;6953;48.810;9.204;2022-11-15T02:11:03;0.50;;;0.50;;
13764;SDS011;6953;48.810;9.204;2022-11-15T02:13:32;0.40;;;0.40;;
13764;SDS011;6953;48.810;9.204;2022-11-15T02:24:55;0.40;;;0.40;;
13764;SDS011;6953;48.810;9.204;2022-11-15T02:33:15;0.60;;;0.60;;
13764;SDS011;6953;48.810;9.204;2022-11-15T02:36:01;0.50;;;0.50;;
13764;SDS011;6953;48.810;9.204;2022-11-15T02:38:34;0.52;;;0.52;;
13764;SDS011;6953;48.810;9.204;2022-11-15T02:41:27;0.50;;;0.50;;
13764;SDS011;6953;48.810;9.204;2022-11-15T02:44:00;0.50;;;0.50;;
13764;SDS011;6953;48.810;9.204;2022-11-15T02:46:33;0.60;;;0.60;;
13764;SDS011;6953;48.810;9.204;2022-11-15T02:49:18;0.40;;;0.40;;
13764;SDS011;6953;48.810;9.204;2022-11-15T02:51:45;0.50;;;0.50;;
13764;SDS011;6953;48.810;9.204;2022-11-15T02:54:24;0.30;;;0.30;;
13764;SDS011;6953;48.810;9.204;2022-11-15T02:56:53;0.50;;;0.50;;
13764;SDS011;6953;48.810;9.204;2022-11-15T03:07:44;0.50;;;0.50;;
13764;SDS011;6953;48.810;9.204;2022-11-15T03:13:13;0.40;;;0.40;;
13764;SDS011;6953;48.810;9.204;2022-11-15T03:15:43;0.50;;;0.50;;
13764;SDS011;6953;48.810;9.204;2022-11-15T03:18:19;0.50;;;0.50;;
13764;SDS011;6953;48.810;9.204;2022-11-15T03:20:59;0.50;;;0.50;;
13764;SDS011;6953;48.810;9.204;2022-11-15T03:23:28;0.47;;;0.47;;
13764;SDS011;6953;48.810;9.204;2022-11-15T03:25:55;0.40;;;0.40;;
13764;SDS011;6953;48.810;9.204;2022-11-15T03:31:21;0.50;;;0.50;;
13764;SDS011;6953;48.810;9.204;2022-11-15T03:34:11;0.40;;;0.40;;
13764;SDS011;6953;48.810;9.204;2022-11-15T03:36:46;0.50;;;0.50;;
13764;SDS011;6953;48.810;9.204;2022-11-15T03:39:12;0.40;;;0.40;;
13764;SDS011;6953;48.810;9.204;2022-11-15T03:41:50;0.50;;;0.50;;
13764;SDS011;6953;48.810;9.204;2022-11-15T03:44:20;0.50;;;0.50;;
13764;SDS011;6953;48.810;9.204;2022-11-15T03:47:02;0.52;;;0.52;;
13764;SDS011;6953;48.810;9.204;2022-11-15T03:49:33;0.50;;;0.50;;
13764;SDS011;6953;48.810;9.204;2022-11-15T03:52:02;0.50;;;0.50;;
13764;SDS011;6953;48.810;9.204;2022-11-15T03:54:28;0.52;;;0.52;;
13764;SDS011;6953;48.810;9.204;2022-11-15T03:56:54;0.50;;;0.50;;
13764;SDS011;6953;48.810;9.204;2022-11-15T03:59:19;0.43;;;0.43;;
13764;SDS011;6953;48.810;9.204;2022-11-15T04:01:45;0.50;;;0.50;;
13764;SDS011;6953;48.810;9.204;2022-11-15T04:04:10;0.53;;;0.53;;
13764;SDS011;6953;48.810;9.204;2022-11-15T04:06:36;0.50;;;0.50;;
13764;SDS011;6953;48.810;9.204;2022-11-15T04:09:01;0.50;;;0.50;;
13764;SDS011;6953;48.810;9.204;2022-11-15T04:11:27;0.40;;;0.40;;
13764;SDS011;6953;48.810;9.204;2022-11-15T04:13:52;0.60;;;0.60;;
13764;SDS011;6953;48.810;9.204;2022-11-15T04:16:18;0.60;;;0.60;;
13764;SDS011;6953;48.810;9.204;2022-11-15T04:18:43;0.50;;;0.50;;
13764;SDS011;6953;48.810;9.204;2022-11-15T04:21:08;0.50;;;0.50;;
13764;SDS011;6953;48.810;9.204;2022-11-15T04:23:53;0.60;;;0.60;;
13764;SDS011;6953;48.810;9.204;2022-11-15T04:26:19;0.55;;;0.55;;
13764;SDS011;6953;48.810;9.204;2022-11-15T04:28:47;0.60;;;0.60;;
13764;SDS011;6953;48.810;9.204;2022-11-15T04:31:31;0.53;;;0.53;;
13764;SDS011;6953;48.810;9.204;2022-11-15T04:33:57;0.60;;;0.60;;
13764;SDS011;6953;48.810;9.204;2022-11-15T04:36:22;0.55;;;0.55;;
13764;SDS011;6953;48.810;9.204;2022-11-15T04:39:07;0.50;;;0.50;;
13764;SDS011;6953;48.810;9.204;2022-11-15T04:41:32;0.55;;;0.55;;
13764;SDS011;6953;48.810;9.204;2022-11-15T04:43:58;0.50;;;0.50;;
13764;SDS011;6953;48.810;9.204;2022-11-15T04:46:24;0.60;;;0.60;;
13764;SDS011;6953;48.810;9.204;2022-11-15T04:48:50;0.50;;;0.50;;
13764;SDS011;6953;48.810;9.204;2022-11-15T04:51:16;0.40;;;0.40;;
13764;SDS011;6953;48.810;9.204;2022-11-15T04:53:42;0.50;;;0.50;;
13764;SDS011;6953;48.810;9.204;2022-11-15T04:56:07;0.50;;;0.50;;
13764;SDS011;6953;48.810;9.204;2022-11-15T04:58:32;0.50;;;0.50;;
13764;SDS011;6953;48.810;9.204;2022-11-15T05:00:58;0.50;;;0.50;;
13764;SDS011;6953;48.810;9.204;2022-11-15T05:03:32;0.60;;;0.60;;
13764;SDS011;6953;48.810;9.204;2022-11-15T05:06:15;0.60;;;0.60;;
13764;SDS011;6953;48.810;9.204;2022-11-15T05:08:41;0.50;;;0.50;;
13764;SDS011;6953;48.810;9.204;2022-11-15T05:11:06;0.50;;;0.50;;
13764;SDS011;6953;48.810;9.204;2022-11-15T05:13:31;0.50;;;0.50;;
13764;SDS011;6953;48.810;9.204;2022-11-15T05:15:57;0.55;;;0.55;;
13764;SDS011;6953;48.810;9.204;2022-11-15T05:18:22;0.60;;;0.60;;
13764;SDS011;6953;48.810;9.204;2022-11-15T05:20:47;0.50;;;0.50;;
13764;SDS011;6953;48.810;9.204;2022-11-15T05:23:12;0.50;;;0.50;;
13764;SDS011;6953;48.810;9.204;2022-11-15T05:25:38;0.50;;;0.50;;
13764;SDS011;6953;48.810;9.204;2022-11-15T05:28:03;0.50;;;0.50;;
13764;SDS011;6953;48.810;9.204;2022-11-15T05:30:29;0.60;;;0.60;;
13764;SDS011;6953;48.810;9.204;2022-11-15T05:32:54;0.60;;;0.60;;
13764;SDS011;6953;48.810;9.204;2022-11-15T05:35:35;0.40;;;0.40;;
13764;SDS011;6953;48.810;9.204;2022-11-15T05:38:04;0.50;;;0.50;;
13764;SDS011;6953;48.810;9.204;2022-11-15T05:40:30;0.53;;;0.53;;
13764;SDS011;6953;48.810;9.204;2022-11-15T05:42:56;0.60;;;0.60;;
13764;SDS011;6953;48.810;9.204;2022-11-15T05:45:23;0.60;;;0.60;;
13764;SDS011;6953;48.810;9.204;2022-11-15T05:47:49;0.60;;;0.60;;
13764;SDS011;6953;48.810;9.204;2022-11-15T05:50:16;0.60;;;0.60;;
13764;SDS011;6953;48.810;9.204;2022-11-15T05:52:43;0.50;;;0.50;;
13764;SDS011;6953;48.810;9.204;2022-11-15T05:55:10;0.60;;;0.60;;
13764;SDS011;6953;48.810;9.204;2022-11-15T05:57:36;0.60;;;0.60;;
13764;SDS011;6953;48.810;9.204;2022-11-15T06:00:03;0.50;;;0.50;;
13764;SDS011;6953;48.810;9.204;2022-11-15T06:02:29;0.50;;;0.50;;
13764;SDS011;6953;48.810;9.204;2022-11-15T06:04:54;0.47;;;0.47;;
13764;SDS011;6953;48.810;9.204;2022-11-15T06:07:20;0.60;;;0.60;;
13764;SDS011;6953;48.810;9.204;2022-11-15T06:09:45;0.50;;;0.50;;
13764;SDS011;6953;48.810;9.204;2022-11-15T06:12:11;0.60;;;0.60;;
13764;SDS011;6953;48.810;9.204;2022-11-15T06:14:36;0.50;;;0.50;;
13764;SDS011;6953;48.810;9.204;2022-11-15T06:17:01;0.60;;;0.60;;
13764;SDS011;6953;48.810;9.204;2022-11-15T06:19:27;0.50;;;0.50;;
13764;SDS011;6953;48.810;9.204;2022-11-15T06:21:57;0.47;;;0.47;;
13764;SDS011;6953;48.810;9.204;2022-11-15T06:24:23;0.40;;;0.40;;
13764;SDS011;6953;48.810;9.204;2022-11-15T06:26:49;0.50;;;0.50;;
13764;SDS011;6953;48.810;9.204;2022-11-15T06:29:14;0.40;;;0.40;;
13764;SDS011;6953;48.810;9.204;2022-11-15T06:31:39;0.60;;;0.60;;
13764;SDS011;6953;48.810;9.204;2022-11-15T06:34:04;0.52;;;0.52;;
13764;SDS011;6953;48.810;9.204;2022-11-15T06:36:30;0.50;;;0.50;;
13764;SDS011;6953;48.810;9.204;2022-11-15T06:38:56;0.60;;;0.60;;
13764;SDS011;6953;48.810;9.204;2022-11-15T06:41:21;0.55;;;0.55;;
13764;SDS011;6953;48.810;9.204;2022-11-15T06:43:47;0.50;;;0.50;;
13764;SDS011;6953;48.810;9.204;2022-11-15T06:46:12;0.55;;;0.55;;
13764;SDS011;6953;48.810;9.204;2022-11-15T06:48:38;0.63;;;0.63;;
13764;SDS011;6953;48.810;9.204;2022-11-15T06:51:04;0.60;;;0.60;;
13764;SDS011;6953;48.810;9.204;2022-11-15T06:53:30;0.60;;;0.60;;
13764;SDS011;6953;48.810;9.204;2022-11-15T06:56:00;0.57;;;0.57;;
13764;SDS011;6953;48.810;9.204;2022-11-15T06:58:26;0.60;;;0.60;;
13764;SDS011;6953;48.810;9.204;2022-11-15T07:00:52;0.60;;;0.60;;
13764;SDS011;6953;48.810;9.204;2022-11-15T07:03:17;0.68;;;0.68;;
13764;SDS011;6953;48.810;9.204;2022-11-15T07:05:50;0.60;;;0.60;;
13764;SDS011;6953;48.810;9.204;2022-11-15T07:08:22;0.63;;;0.63;;
13764;SDS011;6953;48.810;9.204;2022-11-15T07:10:49;0.50;;;0.50;;
13764;SDS011;6953;48.810;9.204;2022-11-15T07:13:14;0.60;;;0.60;;
13764;SDS011;6953;48.810;9.204;2022-11-15T07:15:40;0.57;;;0.57;;
13764;SDS011;6953;48.810;9.204;2022-11-15T07:18:05;0.65;;;0.65;;
13764;SDS011;6953;48.810;9.204;2022-11-15T07:20:30;0.60;;;0.60;;
13764;SDS011;6953;48.810;9.204;2022-11-15T07:23:00;0.55;;;0.55;;
13764;SDS011;6953;48.810;9.204;2022-11-15T07:25:26;0.50;;;0.50;;
13764;SDS011;6953;48.810;9.204;2022-11-15T07:27:58;0.60;;;0.60;;
13764;SDS011;6953;48.810;9.204;2022-11-15T07:30:27;0.60;;;0.60;;
13764;SDS011;6953;48.810;9.204;2022-11-15T07:32:53;0.50;;;0.50;;
13764;SDS011;6953;48.810;9.204;2022-11-15T07:35:25;0.60;;;0.60;;
13764;SDS011;6953;48.810;9.204;2022-11-15T07:37:59;0.60;;;0.60;;
13764;SDS011;6953;48.810;9.204;2022-11-15T07:40:30;0.57;;;0.57;;
13764;SDS011;6953;48.810;9.204;2022-11-15T07:43:14;0.52;;;0.52;;
13764;SDS011;6953;48.810;9.204;2022-11-15T07:45:43;0.50;;;0.50;;
13764;SDS011;6953;48.810;9.204;2022-11-15T07:48:10;0.40;;;0.40;;
13764;SDS011;6953;48.810;9.204;2022-11-15T07:50:35;0.50;;;0.50;;
13764;SDS011;6953;48.810;9.204;2022-11-15T07:53:01;0.50;;;0.50;;
13764;SDS011;6953;48.810;9.204;2022-11-15T07:55:27;0.50;;;0.50;;
13764;SDS011;6953;48.810;9.204;2022-11-15T07:58:02;0.50;;;0.50;;
13764;SDS011;6953;48.810;9.204;2022-11-15T08:00:29;0.50;;;0.50;;
13764;SDS011;6953;48.810;9.204;2022-11-15T08:03:01;0.40;;;0.40;;
13764;SDS011;6953;48.810;9.204;2022-11-15T08:05:35;0.30;;;0.30;;
13764;SDS011;6953;48.810;9.204;2022-11-15T08:08:01;0.40;;;0.40;;
13764;SDS011;6953;48.810;9.204;2022-11-15T08:10:28;0.40;;;0.40;;
13764;SDS011;6953;48.810;9.204;2022-11-15T08:12:57;0.35;;;0.35;;
13764;SDS011;6953;48.810;9.204;2022-11-15T08:15:25;0.40;;;0.40;;
13764;SDS011;6953;48.810;9.204;2022-11-15T08:17:58;0.47;;;0.47;;
13764;SDS011;6953;48.810;9.204;2022-11-15T08:20:29;0.30;;;0.30;;
13764;SDS011;6953;48.810;9.204;2022-11-15T08:22:55;0.30;;;0.30;;
13764;SDS011;6953;48.810;9.204;2022-11-15T08:25:21;0.40;;;0.40;;
13764;SDS011;6953;48.810;9.204;2022-11-15T08:27:47;0.40;;;0.40;;
13764;SDS011;6953;48.810;9.204;2022-11-15T08:30:16;0.30;;;0.30;;
13764;SDS011;6953;48.810;9.204;2022-11-15T08:32:42;0.40;;;0.40;;
13764;SDS011;6953;48.810;9.204;2022-11-15T08:35:07;0.30;;;0.30;;
13764;SDS011;6953;48.810;9.204;2022-11-15T08:37:33;0.30;;;0.30;;
13764;SDS011;6953;48.810;9.204;2022-11-15T08:39:58;0.40;;;0.40;;
13764;SDS011;6953;48.810;9.204;2022-11-15T08:42:24;0.40;;;0.40;;
13764;SDS011;6953;48.810;9.204;2022-11-15T08:44:49;0.40;;;0.40;;
13764;SDS011;6953;48.810;9.204;2022-11-15T08:47:15;0.40;;;0.40;;
13764;SDS011;6953;48.810;9.204;2022-11-15T08:49:40;0.40;;;0.40;;
13764;SDS011;6953;48.810;9.204;2022-11-15T08:52:05;0.40;;;0.40;;
13764;SDS011;6953;48.810;9.204;2022-11-15T08:54:31;0.35;;;0.35;;
13764;SDS011;6953;48.810;9.204;2022-11-15T08:56:56;0.40;;;0.40;;
13764;SDS011;6953;48.810;9.204;2022-11-15T08:59:22;0.30;;;0.30;;
13764;SDS011;6953;48.810;9.204;2022-11-15T09:01:47;0.30;;;0.30;;
13764;SDS011;6953;48.810;9.204;2022-11-15T09:04:13;0.30;;;0.30;;
13764;SDS011;6953;48.810;9.204;2022-11-15T09:06:38;0.20;;;0.20;;
13764;SDS011;6953;48.810;9.204;2022-11-15T09:09:04;0.20;;;0.20;;
13764;SDS011;6953;48.810;9.204;2022-11-15T09:11:29;0.10;;;0.10;;
13764;SDS011;6953;48.810;9.204;2022-11-15T09:13:54;0.10;;;0.10;;
13764;SDS011;6953;48.810;9.204;2022-11-15T09:16:20;0.10;;;0.10;;
13764;SDS011;6953;48.810;9.204;2022-11-15T09:18:45;0.10;;;0.10;;
13764;SDS011;6953;48.810;9.204;2022-11-15T09:21:11;0.13;;;0.13;;
13764;SDS011;6953;48.810;9.204;2022-11-15T09:23:36;0.10;;;0.10;;
13764;SDS011;6953;48.810;9.204;2022-11-15T09:26:03;0.10;;;0.10;;
13764;SDS011;6953;48.810;9.204;2022-11-15T09:28:29;0.10;;;0.10;;
13764;SDS011;6953;48.810;9.204;2022-11-15T09:30:56;0.10;;;0.10;;
13764;SDS011;6953;48.810;9.204;2022-11-15T09:33:26;0.10;;;0.10;;
13764;SDS011;6953;48.810;9.204;2022-11-15T09:35:52;0.10;;;0.10;;
13764;SDS011;6953;48.810;9.204;2022-11-15T09:38:18;0.10;;;0.10;;
13764;SDS011;6953;48.810;9.204;2022-11-15T09:40:43;0.10;;;0.10;;
13764;SDS011;6953;48.810;9.204;2022-11-15T09:51:35;0.10;;;0.10;;
13764;SDS011;6953;48.810;9.204;2022-11-15T09:56:45;0.10;;;0.10;;
13764;SDS011;6953;48.810;9.204;2022-11-15T09:59:17;0.00;;;0.00;;
13764;SDS011;6953;48.810;9.204;2022-11-15T10:04:40;0.00;;;0.00;;
13764;SDS011;6953;48.810;9.204;2022-11-15T10:09:47;0.10;;;0.10;;
13764;SDS011;6953;48.810;9.204;2022-11-15T10:12:20;0.10;;;0.10;;
13764;SDS011;6953;48.810;9.204;2022-11-15T10:14:45;0.10;;;0.10;;
13764;SDS011;6953;48.810;9.204;2022-11-15T10:22:45;0.20;;;0.20;;
13764;SDS011;6953;48.810;9.204;2022-11-15T10:25:18;0.20;;;0.20;;
13764;SDS011;6953;48.810;9.204;2022-11-15T10:30:52;0.20;;;0.20;;
13764;SDS011;6953;48.810;9.204;2022-11-15T10:33:52;0.20;;;0.20;;
13764;SDS011;6953;48.810;9.204;2022-11-15T10:41:13;0.20;;;0.20;;
13764;SDS011;6953;48.810;9.204;2022-11-15T10:43:41;0.20;;;0.20;;
13764;SDS011;6953;48.810;9.204;2022-11-15T10:46:22;0.20;;;0.20;;
13764;SDS011;6953;48.810;9.204;2022-11-15T10:48:49;0.20;;;0.20;;
13764;SDS011;6953;48.810;9.204;2022-11-15T10:51:22;0.30;;;0.30;;
13764;SDS011;6953;48.810;9.204;2022-11-15T10:53:53;0.20;;;0.20;;
13764;SDS011;6953;48.810;9.204;2022-11-15T10:56:21;0.20;;;0.20;;
13764;SDS011;6953;48.810;9.204;2022-11-15T10:58:56;0.20;;;0.20;;
13764;SDS011;6953;48.810;9.204;2022-11-15T11:01:23;0.20;;;0.20;;
13764;SDS011;6953;48.810;9.204;2022-11-15T11:04:00;0.30;;;0.30;;
13764;SDS011;6953;48.810;9.204;2022-11-15T11:06:27;0.28;;;0.28;;
13764;SDS011;6953;48.810;9.204;2022-11-15T11:08:54;0.20;;;0.20;;
13764;SDS011;6953;48.810;9.204;2022-11-15T11:11:49;0.20;;;0.20;;
13764;SDS011;6953;48.810;9.204;2022-11-15T11:14:37;0.20;;;0.20;;
13764;SDS011;6953;48.810;9.204;2022-11-15T11:25:07;0.30;;;0.30;;
13764;SDS011;6953;48.810;9.204;2022-11-15T11:30:08;0.30;;;0.30;;
13764;SDS011;6953;48.810;9.204;2022-11-15T11:35:21;0.20;;;0.20;;
13764;SDS011;6953;48.810;9.204;2022-11-15T11:40:29;0.20;;;0.20;;
13764;SDS011;6953;48.810;9.204;2022-11-15T11:51:17;0.20;;;0.20;;
13764;SDS011;6953;48.810;9.204;2022-11-15T11:53:56;0.20;;;0.20;;
13764;SDS011;6953;48.810;9.204;2022-11-15T11:56:29;0.20;;;0.20;;
13764;SDS011;6953;48.810;9.204;2022-11-15T11:59:02;0.30;;;0.30;;
13764;SDS011;6953;48.810;9.204;2022-11-15T12:01:37;0.20;;;0.20;;
13764;SDS011;6953;48.810;9.204;2022-11-15T12:04:18;0.20;;;0.20;;
13764;SDS011;6953;48.810;9.204;2022-11-15T12:06:56;0.20;;;0.20;;
13764;SDS011;6953;48.810;9.204;2022-11-15T12:09:27;0.20;;;0.20;;
13764;SDS011;6953;48.810;9.204;2022-11-15T12:12:11;0.20;;;0.20;;
13764;SDS011;6953;48.810;9.204;2022-11-15T12:14:48;0.20;;;0.20;;
13764;SDS011;6953;48.810;9.204;2022-11-15T12:17:28;0.20;;;0.20;;
13764;SDS011;6953;48.810;9.204;2022-11-15T12:19:57;0.20;;;0.20;;
13764;SDS011;6953;48.810;9.204;2022-11-15T12:22:38;0.20;;;0.20;;
13764;SDS011;6953;48.810;9.204;2022-11-15T12:25:17;0.20;;;0.20;;
13764;SDS011;6953;48.810;9.204;2022-11-15T12:31:26;0.30;;;0.30;;
13764;SDS011;6953;48.810;9.204;2022-11-15T12:33:40;0.20;;;0.20;;
13764;SDS011;6953;48.810;9.204;2022-11-15T12:36:12;0.20;;;0.20;;
13764;SDS011;6953;48.810;9.204;2022-11-15T12:38:58;0.20;;;0.20;;
13764;SDS011;6953;48.810;9.204;2022-11-15T12:41:32;0.20;;;0.20;;
13764;SDS011;6953;48.810;9.204;2022-11-15T12:43:59;0.20;;;0.20;;
13764;SDS011;6953;48.810;9.204;2022-11-15T13:22:46;0.20;;;0.20;;
13764;SDS011;6953;48.810;9.204;2022-11-15T13:30:38;0.22;;;0.22;;
13764;SDS011;6953;48.810;9.204;2022-11-15T13:33:15;0.20;;;0.20;;
13764;SDS011;6953;48.810;9.204;2022-11-15T13:35:45;0.30;;;0.30;;
13764;SDS011;6953;48.810;9.204;2022-11-15T13:38:25;0.30;;;0.30;;
13764;SDS011;6953;48.810;9.204;2022-11-15T13:40:58;0.20;;;0.20;;
13764;SDS011;6953;48.810;9.204;2022-11-15T13:43:35;0.30;;;0.30;;
13764;SDS011;6953;48.810;9.204;2022-11-15T13:46:05;0.20;;;0.20;;
13764;SDS011;6953;48.810;9.204;2022-11-15T13:48:30;0.30;;;0.30;;
13764;SDS011;6953;48.810;9.204;2022-11-15T13:50:58;0.20;;;0.20;;
13764;SDS011;6953;48.810;9.204;2022-11-15T13:53:24;0.30;;;0.30;;
13764;SDS011;6953;48.810;9.204;2022-11-15T13:55:51;0.30;;;0.30;;
13764;SDS011;6953;48.810;9.204;2022-11-15T13:58:19;0.30;;;0.30;;
13764;SDS011;6953;48.810;9.204;2022-11-15T14:00:45;0.30;;;0.30;;
13764;SDS011;6953;48.810;9.204;2022-11-15T14:03:16;0.30;;;0.30;;
13764;SDS011;6953;48.810;9.204;2022-11-15T14:05:43;0.30;;;0.30;;
13764;SDS011;6953;48.810;9.204;2022-11-15T14:08:23;0.28;;;0.28;;
13764;SDS011;6953;48.810;9.204;2022-11-15T14:11:05;0.20;;;0.20;;
13764;SDS011;6953;48.810;9.204;2022-11-15T14:16:56;0.30;;;0.30;;
13764;SDS011;6953;48.810;9.204;2022-11-15T14:24:36;0.32;;;0.32;;
13764;SDS011;6953;48.810;9.204;2022-11-15T14:27:17;0.30;;;0.30;;
13764;SDS011;6953;48.810;9.204;2022-11-15T14:29:48;0.30;;;0.30;;
13764;SDS011;6953;48.810;9.204;2022-11-15T14:32:37;0.30;;;0.30;;
13764;SDS011;6953;48.810;9.204;2022-11-15T14:35:14;0.40;;;0.40;;
13764;SDS011;6953;48.810;9.204;2022-11-15T14:37:42;0.30;;;0.30;;
13764;SDS011;6953;48.810;9.204;2022-11-15T14:40:08;0.30;;;0.30;;
13764;SDS011;6953;48.810;9.204;2022-11-15T14:42:37;0.30;;;0.30;;
13764;SDS011;6953;48.810;9.204;2022-11-15T14:45:02;0.40;;;0.40;;
13764;SDS011;6953;48.810;9.204;2022-11-15T14:47:28;0.40;;;0.40;;
13764;SDS011;6953;48.810;9.204;2022-11-15T14:49:53;0.40;;;0.40;;
13764;SDS011;6953;48.810;9.204;2022-11-15T14:52:28;0.40;;;0.40;;
13764;SDS011;6953;48.810;9.204;2022-11-15T14:54:58;0.30;;;0.30;;
13764;SDS011;6953;48.810;9.204;2022-11-15T14:57:24;0.30;;;0.30;;
13764;SDS011;6953;48.810;9.204;2022-11-15T14:59:50;0.30;;;0.30;;
13764;SDS011;6953;48.810;9.204;2022-11-15T15:04:45;0.25;;;0.25;;
13764;SDS011;6953;48.810;9.204;2022-11-15T15:07:11;0.40;;;0.40;;
13764;SDS011;6953;48.810;9.204;2022-11-15T15:09:36;0.40;;;0.40;;
13764;SDS011;6953;48.810;9.204;2022-11-15T15:12:02;0.40;;;0.40;;
13764;SDS011;6953;48.810;9.204;2022-11-15T15:14:28;0.40;;;0.40;;
13764;SDS011;6953;48.810;9.204;2022-11-15T15:16:54;0.30;;;0.30;;
13764;SDS011;6953;48.810;9.204;2022-11-15T15:19:20;0.40;;;0.40;;
13764;SDS011;6953;48.810;9.204;2022-11-15T15:21:46;0.40;;;0.40;;
13764;SDS011;6953;48.810;9.204;2022-11-15T15:24:14;0.30;;;0.30;;
13764;SDS011;6953;48.810;9.204;2022-11-15T15:26:40;0.30;;;0.30;;
13764;SDS011;6953;48.810;9.204;2022-11-15T15:29:06;0.30;;;0.30;;
13764;SDS011;6953;48.810;9.204;2022-11-15T15:31:33;0.30;;;0.30;;
13764;SDS011;6953;48.810;9.204;2022-11-15T15:33:59;0.30;;;0.30;;
13764;SDS011;6953;48.810;9.204;2022-11-15T15:36:24;0.40;;;0.40;;
13764;SDS011;6953;48.810;9.204;2022-11-15T15:38:50;0.30;;;0.30;;
13764;SDS011;6953;48.810;9.204;2022-11-15T15:41:15;0.35;;;0.35;;
13764;SDS011;6953;48.810;9.204;2022-11-15T15:43:41;0.20;;;0.20;;
13764;SDS011;6953;48.810;9.204;2022-11-15T15:46:08;0.40;;;0.40;;
13764;SDS011;6953;48.810;9.204;2022-11-15T15:48:36;0.20;;;0.20;;
13764;SDS011;6953;48.810;9.204;2022-11-15T15:51:03;0.40;;;0.40;;
13764;SDS011;6953;48.810;9.204;2022-11-15T15:53:28;0.40;;;0.40;;
13764;SDS011;6953;48.810;9.204;2022-11-15T15:55:55;0.40;;;0.40;;
13764;SDS011;6953;48.810;9.204;2022-11-15T15:58:20;0.40;;;0.40;;
13764;SDS011;6953;48.810;9.204;2022-11-15T16:00:45;0.40;;;0.40;;
13764;SDS011;6953;48.810;9.204;2022-11-15T16:03:11;0.50;;;0.50;;
13764;SDS011;6953;48.810;9.204;2022-11-15T16:05:36;0.30;;;0.30;;
13764;SDS011;6953;48.810;9.204;2022-11-15T16:08:02;0.30;;;0.30;;
13764;SDS011;6953;48.810;9.204;2022-11-15T16:10:28;0.40;;;0.40;;
13764;SDS011;6953;48.810;9.204;2022-11-15T16:12:56;0.38;;;0.38;;
13764;SDS011;6953;48.810;9.204;2022-11-15T16:15:23;0.40;;;0.40;;
13764;SDS011;6953;48.810;9.204;2022-11-15T16:17:51;0.38;;;0.38;;
13764;SDS011;6953;48.810;9.204;2022-11-15T16:20:28;0.30;;;0.30;;
13764;SDS011;6953;48.810;9.204;2022-11-15T16:22:56;0.40;;;0.40;;
13764;SDS011;6953;48.810;9.204;2022-11-15T16:25:21;0.38;;;0.38;;
13764;SDS011;6953;48.810;9.204;2022-11-15T16:27:46;0.30;;;0.30;;
13764;SDS011;6953;48.810;9.204;2022-11-15T16:30:13;0.40;;;0.40;;
13764;SDS011;6953;48.810;9.204;2022-11-15T16:32:39;0.22;;;0.22;;
13764;SDS011;6953;48.810;9.204;2022-11-15T16:35:05;0.40;;;0.40;;
13764;SDS011;6953;48.810;9.204;2022-11-15T16:37:30;0.30;;;0.30;;
13764;SDS011;6953;48.810;9.204;2022-11-15T16:39:56;0.40;;;0.40;;
13764;SDS011;6953;48.810;9.204;2022-11-15T16:42:21;0.30;;;0.30;;
13764;SDS011;6953;48.810;9.204;2022-11-15T16:44:46;0.32;;;0.32;;
13764;SDS011;6953;48.810;9.204;2022-11-15T16:47:16;0.30;;;0.30;;
13764;SDS011;6953;48.810;9.204;2022-11-15T16:49:45;0.30;;;0.30;;
13764;SDS011;6953;48.810;9.204;2022-11-15T16:52:10;0.30;;;0.30;;
13764;SDS011;6953;48.810;9.204;2022-11-15T16:54:36;0.30;;;0.30;;
13764;SDS011;6953;48.810;9.204;2022-11-15T16:57:01;0.30;;;0.30;;
13764;SDS011;6953;48.810;9.204;2022-11-15T16:59:27;0.38;;;0.38;;
13764;SDS011;6953;48.810;9.204;2022-11-15T17:01:52;0.40;;;0.40;;
13764;SDS011;6953;48.810;9.204;2022-11-15T17:04:18;0.30;;;0.30;;
13764;SDS011;6953;48.810;9.204;2022-11-15T17:06:45;0.30;;;0.30;;
13764;SDS011;6953;48.810;9.204;2022-11-15T17:09:15;0.40;;;0.40;;
13764;SDS011;6953;48.810;9.204;2022-11-15T17:11:43;0.30;;;0.30;;
13764;SDS011;6953;48.810;9.204;2022-11-15T17:14:08;0.38;;;0.38;;
13764;SDS011;6953;48.810;9.204;2022-11-15T17:16:35;0.40;;;0.40;;
13764;SDS011;6953;48.810;9.204;2022-11-15T17:19:02;0.40;;;0.40;;
13764;SDS011;6953;48.810;9.204;2022-11-15T17:21:28;0.40;;;0.40;;
13764;SDS011;6953;48.810;9.204;2022-11-15T17:23:54;0.40;;;0.40;;
13764;SDS011;6953;48.810;9.204;2022-11-15T17:26:19;0.30;;;0.30;;
13764;SDS011;6953;48.810;9.204;2022-11-15T17:28:45;0.30;;;0.30;;
13764;SDS011;6953;48.810;9.204;2022-11-15T17:31:11;0.40;;;0.40;;